Time;durP1;ratioP1;P1;durP2;ratioP2;P2;SDS_P1;SDS_P2;PMS_P1;PMS_P2;Temp;Humidity;BMP_temperature;BMP_pressure;BME280_temperature;BME280_humidity;BME280_pressure;Samples;Min_cycle;Max_cycle;Signal;HPM_P1;HPM_P2
2022/01/14 00:01:23;;;;;;;;;51.25;40.00;;;;;2.55;96.04;102884.59;5060985;28;45310;-62
2022/01/14 00:03:48;;;;;;;;;59.75;44.25;;;;;2.56;95.40;102882.88;5059802;28;45226;-62
2022/01/14 00:06:14;;;;;;;;;53.25;40.00;;;;;2.58;95.58;102886.41;5060828;28;45339;-62
2022/01/14 00:08:39;;;;;;;;;58.25;45.50;;;;;2.58;96.11;102879.50;5043579;28;46079;-63
2022/01/14 00:11:14;;;;;;;;;57.75;43.50;;;;;2.58;94.71;102883.81;5060424;28;45389;-62
2022/01/14 00:13:51;;;;;;;;;58.25;45.25;;;;;2.56;95.53;102872.50;5061225;28;45261;-60
2022/01/14 00:16:18;;;;;;;;;43.50;34.25;;;;;2.53;94.80;102872.41;5062326;28;45436;-62
2022/01/14 00:18:43;;;;;;;;;62.50;47.25;;;;;2.50;95.20;102872.31;5059367;28;46280;-62
2022/01/14 00:21:09;;;;;;;;;53.75;39.25;;;;;2.51;95.46;102880.13;5064384;28;45374;-62
2022/01/14 00:23:38;;;;;;;;;57.25;44.25;;;;;2.48;95.87;102870.56;5059847;28;45417;-62
2022/01/14 00:31:51;;;;;;;;;58.25;44.50;;;;;2.44;95.75;102870.41;5058480;28;45241;-63
2022/01/14 00:34:17;;;;;;;;;48.75;41.00;;;;;2.43;96.05;102882.53;5058916;28;45276;-63
2022/01/14 00:36:45;;;;;;;;;57.75;42.50;;;;;2.42;96.03;102878.16;5059670;28;45526;-62
2022/01/14 00:39:13;;;;;;;;;53.25;42.25;;;;;2.43;95.59;102882.53;5042621;28;45525;-62
2022/01/14 00:41:39;;;;;;;;;53.50;40.75;;;;;2.43;95.57;102884.22;5042643;28;45423;-60
2022/01/14 00:44:10;;;;;;;;;51.75;41.25;;;;;2.36;95.63;102864.09;5060224;28;45356;-62
2022/01/14 00:46:41;;;;;;;;;54.00;42.50;;;;;2.40;95.90;102861.66;5059747;28;45334;-61
2022/01/14 00:49:06;;;;;;;;;56.50;41.75;;;;;2.36;95.27;102857.19;5059621;28;46356;-62
2022/01/14 00:51:32;;;;;;;;;58.50;41.75;;;;;2.37;95.32;102860.66;5059512;28;45345;-63
2022/01/14 00:53:57;;;;;;;;;48.25;39.25;;;;;2.34;95.05;102857.13;5060866;28;45229;-62
2022/01/14 00:56:31;;;;;;;;;57.25;39.75;;;;;2.22;95.21;102845.50;5060304;28;45378;-63
2022/01/14 00:59:16;;;;;;;;;45.50;38.75;;;;;2.33;95.53;102857.97;5058471;28;46488;-64
2022/01/14 01:01:52;;;;;;;;;52.00;38.75;;;;;2.31;94.83;102853.56;5040074;28;45359;-63
2022/01/14 01:04:18;;;;;;;;;56.25;42.00;;;;;2.27;95.31;102851.72;5058706;28;45264;-62
2022/01/14 01:06:44;;;;;;;;;52.00;40.25;;;;;2.29;95.79;102845.72;5058949;28;45349;-60
2022/01/14 01:09:12;;;;;;;;;51.00;39.75;;;;;2.31;95.91;102859.63;5059152;28;45955;-63
2022/01/14 01:11:54;;;;;;;;;48.25;38.25;;;;;2.32;95.09;102861.41;5060205;28;45353;-62
2022/01/14 01:14:27;;;;;;;;;49.25;38.00;;;;;2.28;95.64;102853.47;5059729;28;45444;-63
2022/01/14 01:16:52;;;;;;;;;45.00;37.25;;;;;2.27;95.44;102859.50;5061959;28;45436;-62
2022/01/14 01:19:18;;;;;;;;;52.25;39.25;;;;;2.23;95.24;102858.50;5059902;28;45373;-61
2022/01/14 01:21:44;;;;;;;;;44.75;37.75;;;;;2.28;95.30;102861.28;5058580;28;45341;-61
2022/01/14 01:24:10;;;;;;;;;48.25;41.00;;;;;2.30;95.35;102867.41;5058922;28;45403;-62
2022/01/14 01:26:39;;;;;;;;;48.50;38.25;;;;;2.29;95.26;102868.22;5058603;28;45518;-62
2022/01/14 01:31:38;;;;;;;;;52.25;39.00;;;;;2.30;95.63;102867.41;5057770;28;45356;-61
2022/01/14 01:34:19;;;;;;;;;50.50;39.00;;;;;2.26;95.42;102850.81;5057655;28;45336;-61
2022/01/14 01:36:48;;;;;;;;;51.00;41.00;;;;;2.29;95.17;102856.09;5057788;28;45460;-60
2022/01/14 01:39:19;;;;;;;;;40.50;37.50;;;;;2.27;95.47;102860.38;5057642;28;47143;-61
2022/01/14 01:41:47;;;;;;;;;53.00;42.00;;;;;2.28;96.14;102854.34;5059363;28;45395;-60
2022/01/14 01:44:14;;;;;;;;;53.00;43.25;;;;;2.28;96.25;102856.94;5057360;28;45342;-58
2022/01/14 01:46:42;;;;;;;;;53.75;41.50;;;;;2.28;95.20;102867.31;5057818;28;45234;-61
2022/01/14 01:49:09;;;;;;;;;49.00;41.00;;;;;2.25;95.75;102861.16;5059550;28;45349;-62
2022/01/14 01:51:35;;;;;;;;;44.00;36.50;;;;;2.29;96.02;102863.91;5059445;28;45433;-61
2022/01/14 01:54:01;;;;;;;;;47.75;39.00;;;;;2.27;95.99;102869.91;5058271;28;45394;-60
2022/01/14 01:56:26;;;;;;;;;44.50;37.75;;;;;2.28;96.47;102863.88;5042279;28;45391;-61
2022/01/14 01:58:52;;;;;;;;;57.25;42.00;;;;;2.17;95.61;102842.75;5063605;28;45513;-61
2022/01/14 02:01:17;;;;;;;;;54.75;41.50;;;;;2.26;95.75;102849.94;5064204;28;45296;-62
2022/01/14 02:03:43;;;;;;;;;53.75;40.75;;;;;2.30;96.12;102857.00;5064385;28;44747;-62
2022/01/14 02:06:09;;;;;;;;;46.75;38.50;;;;;2.32;96.00;102857.94;5061756;28;45217;-61
2022/01/14 02:08:35;;;;;;;;;56.75;39.75;;;;;2.31;96.32;102851.84;5059154;28;46105;-61
2022/01/14 02:11:01;;;;;;;;;56.50;39.75;;;;;2.29;95.94;102848.31;5060479;28;45356;-61
2022/01/14 02:13:26;;;;;;;;;52.25;41.50;;;;;2.27;95.50;102838.72;5059116;28;45363;-60
2022/01/14 02:18:37;;;;;;;;;53.75;40.75;;;;;2.28;95.50;102830.09;5056697;28;45351;-61
2022/01/14 02:23:54;;;;;;;;;52.50;39.00;;;;;2.27;95.33;102838.72;5056178;28;45288;-62
2022/01/14 02:26:21;;;;;;;;;50.00;41.50;;;;;2.26;95.32;102823.97;5057031;28;45216;-62
2022/01/14 02:28:47;;;;;;;;;49.25;39.50;;;;;2.28;95.76;102836.16;5061918;28;46255;-62
2022/01/14 02:31:13;;;;;;;;;51.25;41.25;;;;;2.29;95.41;102831.88;5039979;28;45277;-63
2022/01/14 02:33:39;;;;;;;;;45.75;37.00;;;;;2.17;96.10;102817.66;5059294;28;45305;-62
2022/01/14 02:36:05;;;;;;;;;45.00;36.25;;;;;2.26;96.25;102823.97;5057949;28;45442;-62
2022/01/14 02:38:31;;;;;;;;;55.25;42.00;;;;;2.25;96.00;102820.50;5039450;28;47255;-63
2022/01/14 02:40:58;;;;;;;;;52.25;41.75;;;;;2.26;96.25;102818.78;5040645;28;45552;-62
2022/01/14 02:43:25;;;;;;;;;52.00;43.00;;;;;2.28;95.70;102822.31;5057883;28;45328;-61
2022/01/14 02:45:53;;;;;;;;;48.75;38.75;;;;;2.29;95.43;102831.88;5058559;28;45209;-62
2022/01/14 02:48:21;;;;;;;;;53.00;40.00;;;;;2.27;95.26;102820.56;5057709;28;47111;-62
2022/01/14 02:56:23;;;;;;;;;52.50;42.75;;;;;2.26;95.45;102806.66;5057002;28;45270;-62
2022/01/14 02:58:50;;;;;;;;;50.25;42.25;;;;;2.30;95.27;102805.91;5056713;28;46675;-62
2022/01/14 03:01:22;;;;;;;;;55.50;43.50;;;;;2.31;95.92;102805.09;5056789;28;45459;-61
2022/01/14 03:03:48;;;;;;;;;46.75;40.25;;;;;2.31;96.09;102802.50;5056959;28;45436;-61
2022/01/14 03:06:14;;;;;;;;;49.75;40.75;;;;;2.32;96.22;102805.97;5057690;28;45387;-62
2022/01/14 03:08:41;;;;;;;;;55.75;43.00;;;;;2.33;95.44;102807.75;5059593;28;45498;-61
2022/01/14 03:11:19;;;;;;;;;55.75;43.75;;;;;2.32;95.74;102805.97;5060398;28;45352;-61
2022/01/14 03:13:46;;;;;;;;;50.25;39.50;;;;;2.29;95.71;102790.31;5044829;28;45367;-62
2022/01/14 03:16:11;;;;;;;;;48.25;38.50;;;;;2.25;95.64;102778.94;5064250;28;45217;-61
2022/01/14 03:21:16;;;;;;;;;47.50;39.00;;;;;2.24;96.05;102773.72;5060602;28;45426;-61
2022/01/14 03:23:47;;;;;;;;;58.75;45.00;;;;;2.26;95.74;102775.50;5061243;28;45455;-62
2022/01/14 03:26:14;;;;;;;;;52.50;40.75;;;;;2.25;95.64;102778.06;5060895;28;45323;-62
2022/01/14 03:28:40;;;;;;;;;47.50;41.25;;;;;2.27;95.56;102782.47;5060581;28;46090;-61
2022/01/14 03:31:05;;;;;;;;;52.75;42.00;;;;;2.25;94.73;102778.94;5060561;28;45415;-62
2022/01/14 03:33:31;;;;;;;;;48.50;39.00;;;;;2.23;95.13;102780.59;5060449;28;45307;-62
2022/01/14 03:35:56;;;;;;;;;57.00;41.75;;;;;2.25;95.94;102783.25;5060946;28;45293;-62
2022/01/14 03:38:21;;;;;;;;;59.25;46.50;;;;;2.24;95.34;102777.16;5068204;28;46277;-64
2022/01/14 03:40:47;;;;;;;;;53.50;41.25;;;;;2.24;95.86;102786.69;5043006;28;45296;-60
2022/01/14 03:43:12;;;;;;;;;55.25;45.00;;;;;2.18;95.39;102766.59;5060143;28;45408;-60
2022/01/14 03:45:39;;;;;;;;;50.75;36.75;;;;;2.24;95.63;102782.38;5059949;28;45349;-60
2022/01/14 03:48:06;;;;;;;;;54.50;42.00;;;;;2.23;94.83;102790.13;5059734;28;46149;-61
2022/01/14 03:50:32;;;;;;;;;55.25;42.25;;;;;2.14;94.96;102773.44;5059748;28;45264;-60
2022/01/14 03:52:57;;;;;;;;;50.75;40.50;;;;;2.22;95.18;102783.16;5060110;28;45260;-60
2022/01/14 03:55:23;;;;;;;;;59.75;42.25;;;;;2.21;95.87;102781.41;5059818;28;45137;-61
2022/01/14 03:57:49;;;;;;;;;54.75;42.25;;;;;2.18;95.40;102774.41;5060113;28;45289;-59
2022/01/14 04:00:15;;;;;;;;;55.75;46.50;;;;;2.14;95.42;102765.66;5059572;28;45347;-62
2022/01/14 04:02:41;;;;;;;;;55.75;43.50;;;;;2.17;96.01;102770.03;5062015;28;45372;-60
2022/01/14 04:05:06;;;;;;;;;57.25;43.25;;;;;2.11;95.11;102760.31;5066689;28;45644;-61
2022/01/14 04:07:32;;;;;;;;;59.75;44.50;;;;;2.08;95.47;102772.34;5066726;28;45406;-61
2022/01/14 04:09:57;;;;;;;;;56.75;44.50;;;;;2.06;94.68;102769.69;5041015;28;45308;-60
2022/01/14 04:12:42;;;;;;;;;54.75;44.75;;;;;2.02;95.39;102768.75;5058992;28;45317;-60
2022/01/14 04:17:52;;;;;;;;;56.50;42.50;;;;;2.03;94.92;102780.00;5059049;28;45443;-61
2022/01/14 04:20:17;;;;;;;;;54.00;44.00;;;;;2.00;95.17;102764.31;5041269;28;45271;-61
2022/01/14 04:22:43;;;;;;;;;53.25;41.50;;;;;2.00;95.23;102773.00;5041161;28;45282;-58
2022/01/14 04:25:08;;;;;;;;;53.50;44.75;;;;;1.98;95.49;102774.66;5059767;28;45327;-60
2022/01/14 04:27:33;;;;;;;;;51.25;41.75;;;;;1.96;95.04;102776.34;5063082;28;45464;-61
2022/01/14 04:29:59;;;;;;;;;55.75;41.25;;;;;1.94;95.78;102775.41;5059733;28;45267;-61
2022/01/14 04:32:24;;;;;;;;;53.75;42.75;;;;;1.90;95.20;102771.81;5058752;28;45272;-58
2022/01/14 04:34:50;;;;;;;;;64.00;49.75;;;;;1.89;94.88;102769.19;5058582;28;45487;-60
2022/01/14 04:37:15;;;;;;;;;48.00;39.00;;;;;1.79;95.74;102755.03;5057463;28;46129;-58
2022/01/14 04:39:40;;;;;;;;;54.50;42.25;;;;;1.79;94.86;102754.16;5057799;28;45367;-59
2022/01/14 04:42:06;;;;;;;;;56.00;45.50;;;;;1.74;94.50;102741.94;5057232;28;45461;-60
2022/01/14 04:44:31;;;;;;;;;61.25;43.75;;;;;1.71;95.10;102751.31;5058070;28;45633;-62
2022/01/14 04:47:12;;;;;;;;;53.75;42.00;;;;;1.70;96.14;102741.78;5058276;28;46515;-60
2022/01/14 04:49:38;;;;;;;;;53.50;38.50;;;;;1.72;95.41;102750.50;5045554;28;45343;-60
2022/01/14 04:52:06;;;;;;;;;47.00;39.50;;;;;1.72;95.50;102750.50;5058400;28;45490;-59
2022/01/14 04:54:31;;;;;;;;;58.25;44.25;;;;;1.63;95.92;102730.34;5058127;28;45328;-61
2022/01/14 04:56:56;;;;;;;;;56.50;41.00;;;;;1.68;95.27;102743.44;5058043;28;45359;-61
2022/01/14 04:59:22;;;;;;;;;50.25;39.25;;;;;1.66;95.65;102738.22;5062695;28;45285;-61
2022/01/14 05:01:48;;;;;;;;;53.50;43.00;;;;;1.66;95.94;102737.31;5060571;28;45688;-59
2022/01/14 05:04:13;;;;;;;;;60.25;47.00;;;;;1.64;95.34;102721.72;5056632;28;45548;-61
2022/01/14 05:06:41;;;;;;;;;55.00;40.50;;;;;1.66;96.13;102726.94;5057589;28;45903;-61
2022/01/14 05:09:17;;;;;;;;;50.50;42.50;;;;;1.66;96.39;102725.25;5058343;28;45582;-61
2022/01/14 05:11:51;;;;;;;;;53.50;43.00;;;;;1.67;96.40;102728.72;5059039;28;45405;-61
2022/01/14 05:14:16;;;;;;;;;57.00;45.50;;;;;1.68;95.56;102743.44;5060216;28;45445;-60
2022/01/14 05:16:42;;;;;;;;;49.50;40.25;;;;;1.65;96.16;102741.66;5041630;28;46248;-61
2022/01/14 05:19:07;;;;;;;;;61.00;46.75;;;;;1.50;96.08;102713.50;5068241;28;45520;-60
2022/01/14 05:21:32;;;;;;;;;58.00;43.00;;;;;1.67;96.38;102731.31;5057773;28;45343;-60
2022/01/14 05:23:58;;;;;;;;;55.00;43.50;;;;;1.65;95.51;102725.19;5057514;28;45509;-59
2022/01/14 05:26:23;;;;;;;;;55.25;44.75;;;;;1.50;96.25;102699.63;5057661;28;45553;-60
2022/01/14 05:28:48;;;;;;;;;54.00;43.25;;;;;1.65;95.97;102732.97;5039198;28;45388;-59
2022/01/14 05:31:14;;;;;;;;;54.75;42.25;;;;;1.64;96.11;102728.59;5056372;28;45531;-60
2022/01/14 05:33:41;;;;;;;;;55.50;43.50;;;;;1.67;96.31;102731.31;5056688;28;45544;-58
2022/01/14 05:36:07;;;;;;;;;55.75;42.00;;;;;1.67;96.00;102728.72;5059392;28;45699;-62
2022/01/14 05:38:32;;;;;;;;;56.25;43.75;;;;;1.72;96.19;102743.59;5040961;28;45291;-61
2022/01/14 05:40:57;;;;;;;;;50.75;41.25;;;;;1.75;96.25;102741.09;5040097;28;45263;-61
2022/01/14 05:43:23;;;;;;;;;56.75;42.25;;;;;1.79;96.78;102743.78;5058393;28;45170;-60
2022/01/14 05:45:48;;;;;;;;;51.25;41.25;;;;;1.83;96.05;102743.06;5056988;28;45679;-59
2022/01/14 05:48:13;;;;;;;;;52.75;39.50;;;;;1.88;96.23;102754.47;5057169;28;45320;-62
2022/01/14 05:50:39;;;;;;;;;46.75;39.00;;;;;1.93;96.68;102754.59;5057764;28;45390;-60
2022/01/14 05:53:06;;;;;;;;;52.00;42.00;;;;;1.93;96.44;102758.06;5059142;28;45779;-62
2022/01/14 05:55:32;;;;;;;;;52.50;42.00;;;;;1.96;95.78;102752.06;5057025;28;45612;-62
2022/01/14 05:57:57;;;;;;;;;57.00;44.75;;;;;1.96;95.55;102745.19;5057330;28;45367;-61
2022/01/14 06:00:23;;;;;;;;;55.50;46.00;;;;;1.95;95.96;102746.03;5058930;28;45391;-61
2022/01/14 06:02:50;;;;;;;;;54.00;42.75;;;;;1.96;96.53;102747.78;5058938;28;45222;-59
2022/01/14 06:05:17;;;;;;;;;59.50;49.50;;;;;2.02;96.72;102758.34;5057022;28;46162;-62
2022/01/14 06:07:42;;;;;;;;;58.75;43.50;;;;;2.08;96.36;102754.19;5057531;28;45443;-61
2022/01/14 06:10:10;;;;;;;;;53.25;43.00;;;;;2.10;96.63;102755.97;5058384;28;45335;-60
2022/01/14 06:12:36;;;;;;;;;42.00;37.75;;;;;2.12;95.35;102756.03;5057373;28;45400;-62
2022/01/14 06:15:01;;;;;;;;;54.75;41.50;;;;;2.17;96.37;102749.25;5036656;28;46534;-61
2022/01/14 06:17:27;;;;;;;;;56.00;43.75;;;;;2.16;95.91;102740.59;5036436;28;45404;-61
2022/01/14 06:19:52;;;;;;;;;58.50;46.25;;;;;2.24;96.03;102755.53;5055409;28;45491;-62
2022/01/14 06:22:17;;;;;;;;;57.75;44.25;;;;;2.25;95.95;102742.56;5059627;28;45541;-61
2022/01/14 06:24:43;;;;;;;;;60.50;46.25;;;;;2.26;95.56;102744.34;5057979;28;45490;-62
2022/01/14 06:27:08;;;;;;;;;56.75;43.25;;;;;2.22;95.92;102742.47;5057420;28;45419;-62
2022/01/14 06:29:34;;;;;;;;;55.00;42.25;;;;;2.28;96.15;102752.19;5056903;28;45391;-60
2022/01/14 06:31:59;;;;;;;;;54.25;42.00;;;;;2.32;96.47;102756.63;5058442;28;45533;-61
2022/01/14 06:34:24;;;;;;;;;60.50;47.50;;;;;2.33;95.93;102754.06;5057248;28;46491;-61
2022/01/14 06:36:50;;;;;;;;;49.25;40.50;;;;;2.38;94.99;102756.81;5038679;28;45840;-61
2022/01/14 06:39:15;;;;;;;;;52.75;41.00;;;;;2.38;95.42;102753.31;5056244;28;45474;-61
2022/01/14 06:41:41;;;;;;;;;51.00;41.75;;;;;2.36;95.59;102748.09;5057046;28;45537;-61
2022/01/14 06:44:07;;;;;;;;;43.50;37.25;;;;;2.30;95.51;102733.19;5057809;28;45689;-61
2022/01/14 06:46:33;;;;;;;;;51.25;39.00;;;;;2.38;95.64;102749.03;5059191;28;45209;-61
2022/01/14 06:48:58;;;;;;;;;47.00;39.50;;;;;2.40;95.88;102742.16;5041530;28;45304;-61
2022/01/14 06:51:23;;;;;;;;;41.75;34.75;;;;;2.40;95.34;102739.56;5026139;28;45385;-59
2022/01/14 06:53:49;;;;;;;;;50.00;41.50;;;;;2.42;95.41;102732.69;5051102;28;45487;-60
2022/01/14 06:56:15;;;;;;;;;53.75;38.00;;;;;2.43;95.12;102741.34;5061879;28;45438;-63
2022/01/14 06:58:41;;;;;;;;;57.25;42.00;;;;;2.45;94.85;102730.19;5059878;28;45518;-64
2022/01/14 07:01:07;;;;;;;;;57.75;42.00;;;;;2.45;94.89;102734.47;5059435;28;45557;-60
2022/01/14 07:03:32;;;;;;;;;47.25;37.50;;;;;2.46;95.42;102731.94;5059424;28;46322;-60
2022/01/14 07:05:57;;;;;;;;;51.00;38.75;;;;;2.48;95.58;102732.84;5059818;28;45922;-60
2022/01/14 07:08:23;;;;;;;;;40.25;36.75;;;;;2.41;95.68;102723.13;5059542;28;45429;-61
2022/01/14 07:10:48;;;;;;;;;41.75;34.75;;;;;2.53;94.79;102730.38;5067057;28;45558;-61
2022/01/14 07:13:14;;;;;;;;;43.75;37.75;;;;;2.55;95.20;102727.84;5058637;28;45451;-61
2022/01/14 07:15:39;;;;;;;;;45.00;36.25;;;;;2.57;95.33;102724.41;5059560;28;45407;-61
2022/01/14 07:18:05;;;;;;;;;42.75;35.25;;;;;2.59;95.13;102727.06;5058824;28;45355;-60
2022/01/14 07:20:30;;;;;;;;;40.25;35.00;;;;;2.61;95.89;102725.41;5058551;28;45273;-61
2022/01/14 07:22:55;;;;;;;;;50.25;38.50;;;;;2.63;94.99;102728.94;5039662;28;46057;-61
2022/01/14 07:25:21;;;;;;;;;50.25;39.75;;;;;2.60;95.23;102716.72;5057506;28;45759;-62
2022/01/14 07:27:47;;;;;;;;;52.50;39.50;;;;;2.67;94.77;102719.50;5058247;28;45339;-60
2022/01/14 07:30:16;;;;;;;;;50.75;39.50;;;;;2.45;95.14;102677.31;5057855;28;45424;-62
2022/01/14 07:32:42;;;;;;;;;53.75;41.50;;;;;2.70;95.49;102715.25;5056977;28;47138;-61
2022/01/14 07:35:08;;;;;;;;;57.25;47.25;;;;;2.73;95.23;102719.66;5057859;28;45430;-62
2022/01/14 07:37:33;;;;;;;;;54.00;42.25;;;;;2.77;94.91;102726.72;5058440;28;45539;-61
2022/01/14 07:39:59;;;;;;;;;53.75;39.50;;;;;2.77;95.33;102727.56;5058217;28;45448;-63
2022/01/14 07:42:25;;;;;;;;;46.75;38.50;;;;;2.82;95.25;102732.00;5058134;28;46586;-61
2022/01/14 07:44:50;;;;;;;;;47.50;38.00;;;;;2.87;94.94;102730.41;5057890;28;45347;-62
2022/01/14 07:47:16;;;;;;;;;46.50;36.25;;;;;2.86;94.91;102724.34;5057752;28;45312;-61
2022/01/14 07:49:41;;;;;;;;;54.25;39.75;;;;;2.91;94.41;102734.84;5058303;28;45458;-61
2022/01/14 07:52:07;;;;;;;;;50.50;41.00;;;;;2.89;95.18;102721.84;5058138;28;46134;-62
2022/01/14 07:54:32;;;;;;;;;52.75;39.00;;;;;2.97;94.53;102735.03;5057090;28;45458;-62
2022/01/14 07:57:00;;;;;;;;;48.00;37.25;;;;;3.01;94.32;102730.78;5061548;28;45322;-61
2022/01/14 07:59:29;;;;;;;;;40.00;34.00;;;;;3.02;94.07;102728.22;5058263;28;45541;-62
2022/01/14 08:01:56;;;;;;;;;54.25;42.00;;;;;3.05;94.23;102746.50;5057466;28;46077;-61
2022/01/14 08:04:22;;;;;;;;;41.75;36.00;;;;;3.10;93.96;102737.94;5057953;28;45506;-62
2022/01/14 08:06:50;;;;;;;;;52.00;38.00;;;;;3.13;94.14;102733.72;5058552;28;45455;-62
2022/01/14 08:09:17;;;;;;;;;40.00;36.00;;;;;3.15;92.75;102728.53;5040126;28;45501;-61
2022/01/14 08:11:44;;;;;;;;;47.50;38.25;;;;;3.18;93.05;102736.41;5058022;28;46300;-60
2022/01/14 08:14:11;;;;;;;;;50.50;41.50;;;;;3.22;92.57;102728.72;5057825;28;45383;-59
2022/01/14 08:16:36;;;;;;;;;47.25;38.00;;;;;3.21;92.85;102729.56;5057898;28;45547;-61
2022/01/14 08:19:02;;;;;;;;;51.75;40.00;;;;;3.28;92.64;102746.22;5058347;28;45275;-63
2022/01/14 08:21:27;;;;;;;;;48.75;39.00;;;;;3.32;92.33;102737.66;5057898;28;45332;-62
2022/01/14 08:23:53;;;;;;;;;49.50;39.50;;;;;3.32;92.62;102737.66;5058133;28;45216;-62
2022/01/14 08:26:18;;;;;;;;;50.00;39.25;;;;;3.39;92.23;102746.47;5059659;28;45267;-62
2022/01/14 08:28:43;;;;;;;;;51.50;39.00;;;;;3.45;92.68;102750.97;5058514;28;45593;-61
2022/01/14 08:31:09;;;;;;;;;51.00;40.75;;;;;3.45;91.97;102751.84;5060358;28;45918;-62
2022/01/14 08:33:34;;;;;;;;;52.25;40.75;;;;;3.49;90.93;102743.25;5064877;28;45351;-63
2022/01/14 08:36:00;;;;;;;;;51.75;38.75;;;;;3.52;91.70;102739.88;5061079;28;45667;-64
2022/01/14 08:38:26;;;;;;;;;60.25;46.00;;;;;3.55;91.02;102739.94;5045072;28;45586;-64
2022/01/14 08:40:51;;;;;;;;;58.00;37.00;;;;;3.60;91.39;102745.22;5041015;28;48062;-63
2022/01/14 08:43:17;;;;;;;;;60.75;50.00;;;;;3.60;91.30;102737.44;5057744;28;45871;-63
2022/01/14 08:45:42;;;;;;;;;50.75;40.75;;;;;3.68;90.41;102745.44;5061315;28;45466;-64
2022/01/14 08:48:08;;;;;;;;;56.75;44.25;;;;;3.72;90.94;102750.75;5064315;28;45379;-63
2022/01/14 08:50:36;;;;;;;;;58.25;42.00;;;;;3.79;90.94;102756.97;5061841;28;45423;-65
2022/01/14 08:53:04;;;;;;;;;77.00;59.00;;;;;3.84;90.54;102750.16;5063755;28;45520;-62
2022/01/14 08:55:29;;;;;;;;;66.75;52.25;;;;;3.90;90.18;102749.41;5042127;28;45380;-62
2022/01/14 08:57:55;;;;;;;;;56.25;44.25;;;;;3.94;90.03;102754.72;5026250;28;44923;-62
2022/01/14 09:00:23;;;;;;;;;52.50;38.50;;;;;4.00;89.53;102760.91;5044895;28;45447;-66
2022/01/14 09:02:48;;;;;;;;;49.25;39.25;;;;;4.02;88.97;102751.41;5060962;28;45360;-61
2022/01/14 09:05:14;;;;;;;;;49.50;37.75;;;;;4.07;89.17;102749.78;5062577;28;45396;-60
2022/01/14 09:07:39;;;;;;;;;53.75;43.00;;;;;4.06;88.27;102735.88;5056828;28;45455;-68
2022/01/14 09:10:06;;;;;;;;;49.00;39.75;;;;;4.17;88.17;102751.72;5054920;28;45558;-63
2022/01/14 09:12:33;;;;;;;;;49.75;39.00;;;;;4.16;87.56;102739.56;5056471;28;45321;-63
2022/01/14 09:15:00;;;;;;;;;53.50;40.75;;;;;4.24;87.62;102739.72;5056233;28;45229;-68
2022/01/14 09:17:26;;;;;;;;;51.00;41.00;;;;;4.26;86.97;102740.63;5054651;28;45376;-62
2022/01/14 09:19:51;;;;;;;;;44.75;36.25;;;;;4.28;86.98;102736.34;5061273;28;46298;-62
2022/01/14 09:22:18;;;;;;;;;50.00;38.50;;;;;4.29;86.72;102734.63;5068803;28;45436;-61
2022/01/14 09:24:46;;;;;;;;;50.25;37.75;;;;;4.32;86.79;102730.34;5052505;28;45494;-61
2022/01/14 09:27:13;;;;;;;;;45.75;35.50;;;;;4.36;86.34;102728.69;5056215;28;45508;-61
2022/01/14 09:29:38;;;;;;;;;43.00;37.00;;;;;4.46;86.17;102729.75;5056193;28;45373;-59
2022/01/14 09:32:05;;;;;;;;;50.00;38.25;;;;;4.52;86.38;102728.16;5057584;28;45360;-61
2022/01/14 09:34:31;;;;;;;;;56.25;42.00;;;;;4.60;86.09;102737.84;5055897;28;45542;-60
2022/01/14 09:36:56;;;;;;;;;45.75;37.75;;;;;4.65;85.68;102731.84;5055536;28;45509;-62
2022/01/14 09:39:21;;;;;;;;;53.75;44.25;;;;;4.68;85.42;102725.84;5054123;28;46309;-63
2022/01/14 09:41:47;;;;;;;;;52.75;41.75;;;;;4.72;84.55;102738.06;5054581;28;45507;-63
2022/01/14 09:44:18;;;;;;;;;52.00;39.25;;;;;4.73;83.25;102739.84;5055662;28;45433;-62
2022/01/14 09:46:43;;;;;;;;;51.75;40.00;;;;;4.73;83.83;102729.41;5054988;28;45545;-63
2022/01/14 09:49:09;;;;;;;;;55.00;41.50;;;;;4.70;83.84;102726.75;5055299;28;46207;-63
2022/01/14 09:51:34;;;;;;;;;51.75;42.25;;;;;4.78;84.46;102732.13;5038777;28;45376;-62
2022/01/14 09:54:00;;;;;;;;;58.75;44.00;;;;;4.76;83.52;102726.84;5075712;27;45323;-62
2022/01/14 09:56:25;;;;;;;;;52.00;40.00;;;;;4.80;83.64;102733.03;5041231;28;45781;-63
2022/01/14 09:58:51;;;;;;;;;71.75;55.00;;;;;4.80;83.15;102733.03;5036480;28;47198;-64
2022/01/14 10:01:20;;;;;;;;;58.50;47.25;;;;;4.82;83.28;102734.78;5054976;28;45450;-62
2022/01/14 10:04:00;;;;;;;;;56.75;44.75;;;;;4.87;83.37;102740.09;5054873;28;45450;-63
2022/01/14 10:06:41;;;;;;;;;59.50;45.00;;;;;4.91;83.86;102752.34;5058154;28;45558;-63
2022/01/14 10:09:10;;;;;;;;;60.75;45.75;;;;;4.99;84.09;102757.69;5056888;28;47086;-62
2022/01/14 10:11:38;;;;;;;;;57.75;46.00;;;;;5.03;83.59;102749.06;5054434;28;45393;-62
2022/01/14 10:14:10;;;;;;;;;57.25;46.00;;;;;5.08;82.54;102759.59;5055222;28;45516;-60
2022/01/14 10:16:36;;;;;;;;;55.00;44.00;;;;;5.08;83.14;102755.25;5056567;28;45406;-61
2022/01/14 10:19:02;;;;;;;;;56.00;43.75;;;;;5.10;82.68;102750.94;5056217;28;46294;-61
2022/01/14 10:21:32;;;;;;;;;54.00;44.00;;;;;5.17;82.68;102751.03;5054597;28;45497;-61
2022/01/14 10:23:59;;;;;;;;;63.00;47.25;;;;;5.19;82.54;102750.22;5054288;28;45249;-66
2022/01/14 10:26:27;;;;;;;;;53.50;43.00;;;;;5.25;82.38;102746.81;5055012;28;45297;-61
2022/01/14 10:29:05;;;;;;;;;55.25;42.75;;;;;5.27;82.57;102739.91;5051075;28;46104;-60
2022/01/14 10:31:33;;;;;;;;;53.50;41.50;;;;;5.36;82.22;102744.41;5050418;28;45523;-62
2022/01/14 10:34:16;;;;;;;;;57.25;45.25;;;;;5.38;82.26;102748.81;5037051;28;45481;-61
2022/01/14 10:36:44;;;;;;;;;65.50;49.75;;;;;5.45;81.90;102741.09;5054673;28;45622;-62
2022/01/14 10:39:23;;;;;;;;;56.50;42.00;;;;;5.51;81.02;102747.25;5054823;28;46176;-61
2022/01/14 10:41:49;;;;;;;;;54.75;41.75;;;;;5.55;81.07;102743.84;5054358;28;45598;-60
2022/01/14 10:44:30;;;;;;;;;54.75;41.50;;;;;5.62;81.29;102747.44;5054976;28;45424;-61
2022/01/14 10:47:12;;;;;;;;;52.50;43.00;;;;;5.73;81.48;102757.19;5020210;28;45344;-62
2022/01/14 10:49:38;;;;;;;;;53.75;41.25;;;;;5.78;80.78;102742.44;5054437;28;45962;-62
2022/01/14 10:52:11;;;;;;;;;55.25;44.75;;;;;5.85;80.41;102739.06;5057380;28;45368;-62
2022/01/14 10:54:48;;;;;;;;;55.25;43.25;;;;;5.91;80.17;102735.69;5054955;28;45328;-62
2022/01/14 10:57:25;;;;;;;;;54.25;43.75;;;;;5.95;79.74;102725.28;5038200;28;45406;-61
2022/01/14 10:59:54;;;;;;;;;56.00;45.75;;;;;6.02;79.70;102709.72;5053497;28;46727;-63
2022/01/14 11:02:45;;;;;;;;;60.25;46.50;;;;;6.02;78.94;102702.78;5054151;28;45346;-62
2022/01/14 11:05:17;;;;;;;;;60.00;46.50;;;;;6.10;80.10;102705.47;5048906;28;45458;-63
2022/01/14 11:07:44;;;;;;;;;57.25;46.50;;;;;6.14;79.58;102709.88;5053792;28;45202;-62
2022/01/14 11:10:22;;;;;;;;;61.25;47.50;;;;;6.15;79.65;102698.56;5053100;28;46105;-63
2022/01/14 11:12:48;;;;;;;;;56.50;44.50;;;;;6.22;78.87;102703.00;5052359;28;45399;-64
2022/01/14 11:15:15;;;;;;;;;53.25;44.50;;;;;6.06;78.31;102668.00;5050788;28;45382;-64
2022/01/14 11:17:42;;;;;;;;;53.25;41.00;;;;;6.29;78.44;102707.44;5030813;28;45478;-68
2022/01/14 11:20:10;;;;;;;;;62.50;46.75;;;;;6.34;78.32;102706.63;5054270;27;45513;-65
2022/01/14 11:25:20;;;;;;;;;61.75;47.00;;;;;6.40;77.78;102702.34;5059724;27;45593;-66
2022/01/14 11:27:54;;;;;;;;;57.25;45.00;;;;;6.41;77.73;102692.78;5052719;28;45812;-64
2022/01/14 11:30:19;;;;;;;;;58.00;44.75;;;;;6.49;78.51;102692.88;5054767;28;45467;-66
2022/01/14 11:33:01;;;;;;;;;57.75;46.25;;;;;6.53;77.64;102689.41;5057333;28;45564;-63
2022/01/14 11:35:27;;;;;;;;;55.25;46.25;;;;;6.53;76.99;102684.19;5051602;28;45607;-63
2022/01/14 11:37:52;;;;;;;;;60.25;48.75;;;;;6.62;78.29;102688.66;5052971;28;45459;-63
2022/01/14 11:40:19;;;;;;;;;64.00;50.50;;;;;6.50;78.13;102647.56;5050992;28;46506;-59
2022/01/14 11:42:46;;;;;;;;;65.50;51.25;;;;;6.72;77.66;102672.19;5049400;28;45420;-63
2022/01/14 11:45:20;;;;;;;;;63.75;49.00;;;;;6.79;77.55;102680.94;5042865;28;45527;-59